Portada
METAR-TAF:

METAR-TAF

Aeropuertos :

Tarawa, Kiribati

Aeropuerto Internacional Bonriki

latitud: 01-21N, longitud: 172-55E, altitud: 2 m

Observación

El informe se hizo hace 39 minutos, a las 23:00 UTC
Viento 14 kt del sur-sureste
Temperatura 31°C
Humedad 66%
Presión 1010 hPa
Visibilidad 10 km o más
Escasas nubes a una altura de 1800 ft
Cielo nuboso a una altura de 30000 ft

METAR: NGTA 202300Z 15014KT 9999 FEW018 BKN300 31/24 Q1010

Hora: 13:39 (23:39 UTC)

Pronóstico

El informe se hizo hace 6 horas y 39 minutos, a las 17:00 UTC
Pronóstico válido del 20 a las 18 UTC al 21 a las 18 UTC
Viento 10 kt del este-sureste
Visibilidad 10 km o más
Nubes dispersas a una altura de 2000 ft

TAF: NGTA 201700Z 2018/2118 12010KT 9999 SCT020

Observaciones y pronósticos meteorológicos de más de 4000 aeropuertos (mensajes METAR y TAF).

Los puntos amarillos y rojos representan las estaciones disponibles.

Ponga el ratón en el punto deseado para ver el nombre de la estación.

Haga clic para ver las observaciones y los pronósticos meteorológicos.

Para cambiar el mapa : haga clic en los botones verdes con una cruz de color negro para hacer un zoom, en el botón verde con un guión para alejar o en las flechas verdes para mapas adyacentes.


METAR-TAF: